Time;durP1;ratioP1;P1;durP2;ratioP2;P2;SDS_P1;SDS_P2;PMS_P1;PMS_P2;Temp;Humidity;BMP_temperature;BMP_pressure;BME280_temperature;BME280_humidity;BME280_pressure;Samples;Min_cycle;Max_cycle;Signal;HPM_P1;HPM_P2
2021/03/18 00:01:39;;;;;;;;;;;19.40;99.90;;;;;;4998828;28;19921;-78
2021/03/18 00:04:07;;;;;;;;;;;19.50;99.90;;;;;;5009402;28;19956;-79
2021/03/18 00:06:34;;;;;;;;;;;19.40;99.90;;;;;;5004966;28;19925;-78
2021/03/18 00:09:01;;;;;;;;;;;19.50;99.90;;;;;;5010794;28;19920;-80
2021/03/18 00:11:28;;;;;;;;;;;19.40;99.90;;;;;;5015306;28;20004;-79
2021/03/18 00:13:55;;;;;;;;;;;19.40;99.90;;;;;;5017733;28;19966;-79
2021/03/18 00:16:22;;;;;;;;;;;19.40;99.90;;;;;;5010894;28;20229;-79
2021/03/18 00:18:53;;;;;;;;;;;19.50;99.90;;;;;;5002972;28;19914;-81
2021/03/18 00:21:23;;;;;;;;;;;19.50;99.90;;;;;;5005263;28;19929;-79
2021/03/18 00:23:50;;;;;;;;;;;19.40;99.90;;;;;;5039201;28;19919;-80
2021/03/18 00:26:18;;;;;;;;;;;19.30;99.90;;;;;;5049973;28;20005;-81
2021/03/18 00:28:46;;;;;;;;;;;19.30;99.90;;;;;;5001946;28;19921;-80
2021/03/18 00:31:15;;;;;;;;;;;19.30;99.90;;;;;;4994017;28;20012;-80
2021/03/18 00:33:41;;;;;;;;;;;19.30;99.90;;;;;;5008502;28;19918;-82
2021/03/18 00:36:08;;;;;;;;;;;19.30;99.90;;;;;;4998572;28;19909;-81
2021/03/18 00:38:37;;;;;;;;;;;19.30;99.90;;;;;;5006337;28;20281;-80
2021/03/18 00:41:05;;;;;;;;;;;19.30;99.90;;;;;;5006572;28;19974;-79
2021/03/18 00:43:35;;;;;;;;;;;19.30;99.90;;;;;;5009905;28;19996;-79
2021/03/18 00:46:02;;;;;;;;;;;19.30;99.90;;;;;;5003949;28;19910;-78
2021/03/18 00:48:29;;;;;;;;;;;19.30;99.90;;;;;;5009825;28;19987;-79
2021/03/18 00:50:58;;;;;;;;;;;19.30;99.90;;;;;;5009528;28;20007;-82
2021/03/18 00:53:27;;;;;;;;;;;19.40;99.90;;;;;;5009796;28;20417;-81
2021/03/18 00:55:54;;;;;;;;;;;19.50;99.90;;;;;;4996431;28;19924;-81
2021/03/18 00:58:21;;;;;;;;;;;19.50;99.90;;;;;;4996409;28;19914;-81
2021/03/18 01:00:49;;;;;;;;;;;19.60;99.90;;;;;;4991810;28;19920;-81
2021/03/18 01:03:17;;;;;;;;;;;19.60;99.90;;;;;;5073184;28;19918;-80
2021/03/18 01:05:45;;;;;;;;;;;19.60;99.90;;;;;;4972033;28;20146;-81
2021/03/18 01:08:13;;;;;;;;;;;19.70;99.90;;;;;;4989546;28;19910;-80
2021/03/18 01:10:41;;;;;;;;;;;19.70;99.90;;;;;;5006934;28;19925;-80
2021/03/18 01:13:08;;;;;;;;;;;19.70;99.90;;;;;;5009609;28;19924;-80
2021/03/18 01:15:36;;;;;;;;;;;19.70;99.90;;;;;;5009496;28;19913;-81
2021/03/18 01:18:05;;;;;;;;;;;19.70;99.90;;;;;;5007786;28;19909;-82
2021/03/18 01:20:34;;;;;;;;;;;19.70;99.90;;;;;;5009353;28;20008;-80
2021/03/18 01:23:01;;;;;;;;;;;19.80;99.90;;;;;;5009041;28;19929;-81
2021/03/18 01:25:28;;;;;;;;;;;19.90;99.90;;;;;;4992056;28;19941;-81
2021/03/18 01:27:55;;;;;;;;;;;19.90;99.90;;;;;;5008264;28;19913;-82
2021/03/18 01:30:26;;;;;;;;;;;19.90;99.90;;;;;;4992918;28;19918;-79
2021/03/18 01:32:52;;;;;;;;;;;19.80;99.90;;;;;;5008301;28;19921;-87
2021/03/18 01:35:23;;;;;;;;;;;19.70;99.90;;;;;;5008669;28;19920;-80
2021/03/18 01:37:50;;;;;;;;;;;19.60;99.90;;;;;;5015723;28;20367;-80
2021/03/18 01:40:25;;;;;;;;;;;19.60;99.90;;;;;;5015504;28;19921;-80
2021/03/18 01:42:52;;;;;;;;;;;19.60;99.90;;;;;;5008153;28;19925;-79
2021/03/18 01:45:19;;;;;;;;;;;19.40;99.90;;;;;;5011109;28;20324;-79
2021/03/18 01:47:46;;;;;;;;;;;19.40;99.90;;;;;;5008780;28;19913;-80
2021/03/18 01:50:14;;;;;;;;;;;19.30;99.90;;;;;;5008569;28;19913;-79
2021/03/18 01:52:41;;;;;;;;;;;19.20;99.90;;;;;;4999097;28;20380;-79
2021/03/18 01:55:09;;;;;;;;;;;19.20;99.90;;;;;;5005174;28;20503;-80
2021/03/18 01:57:37;;;;;;;;;;;19.10;99.90;;;;;;5007294;28;20445;-79
2021/03/18 02:00:10;;;;;;;;;;;19.20;99.90;;;;;;5007571;28;19969;-80
2021/03/18 02:02:37;;;;;;;;;;;19.20;99.90;;;;;;5009269;28;20017;-81
2021/03/18 02:05:05;;;;;;;;;;;19.20;99.90;;;;;;5007370;28;19922;-79
2021/03/18 02:07:31;;;;;;;;;;;19.10;99.90;;;;;;4990587;28;20283;-80
2021/03/18 02:09:59;;;;;;;;;;;19.10;99.90;;;;;;4995367;28;20322;-81
2021/03/18 02:12:25;;;;;;;;;;;19.10;99.90;;;;;;4994083;28;19959;-79
2021/03/18 02:14:53;;;;;;;;;;;19.00;99.90;;;;;;5013436;28;19909;-80
2021/03/18 02:17:24;;;;;;;;;;;18.80;99.90;;;;;;5011864;28;19913;-79
2021/03/18 02:20:19;;;;;;;;;;;18.70;99.90;;;;;;5011999;28;19910;-80
2021/03/18 02:23:03;;;;;;;;;;;18.70;99.90;;;;;;5005970;28;20016;-80
2021/03/18 02:25:34;;;;;;;;;;;18.70;99.90;;;;;;5032867;28;19920;-80
2021/03/18 02:28:22;;;;;;;;;;;18.70;99.90;;;;;;5011268;28;20500;-79
2021/03/18 02:30:49;;;;;;;;;;;18.70;99.90;;;;;;5011068;28;20009;-79
2021/03/18 02:33:18;;;;;;;;;;;18.70;99.90;;;;;;5011965;28;19913;-79
2021/03/18 02:36:02;;;;;;;;;;;18.70;99.90;;;;;;5015135;28;19981;-79
2021/03/18 02:38:31;;;;;;;;;;;18.80;99.90;;;;;;5000973;28;19914;-80
2021/03/18 02:41:03;;;;;;;;;;;18.80;99.90;;;;;;5009624;28;19921;-82
2021/03/18 02:43:33;;;;;;;;;;;18.90;99.90;;;;;;4980694;28;20044;-80
2021/03/18 02:46:02;;;;;;;;;;;18.90;99.90;;;;;;5002294;28;20356;-80
2021/03/18 02:48:30;;;;;;;;;;;18.90;99.90;;;;;;5009571;28;19963;-81
2021/03/18 02:50:57;;;;;;;;;;;18.90;99.90;;;;;;5005666;28;19921;-81
2021/03/18 02:53:25;;;;;;;;;;;18.90;99.90;;;;;;5059079;28;20333;-80
2021/03/18 02:55:52;;;;;;;;;;;18.80;99.90;;;;;;4998022;28;19913;-80
2021/03/18 02:58:21;;;;;;;;;;;18.80;99.90;;;;;;5043816;28;19920;-81
2021/03/18 03:00:49;;;;;;;;;;;18.80;99.90;;;;;;5010711;28;20378;-81
2021/03/18 03:03:18;;;;;;;;;;;18.90;99.90;;;;;;4996908;28;19921;-80
2021/03/18 03:05:50;;;;;;;;;;;18.90;99.90;;;;;;5005070;28;19918;-79
2021/03/18 03:08:17;;;;;;;;;;;18.80;99.90;;;;;;4993549;28;20309;-81
2021/03/18 03:10:47;;;;;;;;;;;18.70;99.90;;;;;;4993441;28;19917;-80
2021/03/18 03:13:15;;;;;;;;;;;18.70;99.90;;;;;;5011043;28;19929;-81
2021/03/18 03:15:42;;;;;;;;;;;18.80;99.90;;;;;;5011281;28;19932;-81
2021/03/18 03:18:11;;;;;;;;;;;18.90;99.90;;;;;;5009769;28;19918;-86
2021/03/18 03:20:41;;;;;;;;;;;18.80;99.90;;;;;;5011012;28;20367;-80
2021/03/18 03:23:08;;;;;;;;;;;18.80;99.90;;;;;;5009438;28;19972;-81
2021/03/18 03:25:36;;;;;;;;;;;18.80;99.90;;;;;;5010290;28;19943;-82
2021/03/18 03:28:05;;;;;;;;;;;19.00;99.90;;;;;;5010785;28;19971;-81
2021/03/18 03:30:31;;;;;;;;;;;19.00;99.90;;;;;;5017307;28;19968;-80
2021/03/18 03:32:58;;;;;;;;;;;19.00;99.90;;;;;;5036924;28;19992;-79
2021/03/18 03:35:25;;;;;;;;;;;19.00;99.90;;;;;;5000323;28;19914;-80
2021/03/18 03:37:52;;;;;;;;;;;19.00;99.90;;;;;;5010925;28;20331;-79
2021/03/18 03:40:19;;;;;;;;;;;19.10;99.90;;;;;;5012455;28;19917;-80
2021/03/18 03:42:46;;;;;;;;;;;19.10;99.90;;;;;;5015921;28;19913;-80
2021/03/18 03:45:14;;;;;;;;;;;19.10;99.90;;;;;;5015241;28;20383;-79
2021/03/18 03:47:41;;;;;;;;;;;19.10;99.90;;;;;;5002595;28;20016;-79
2021/03/18 03:50:10;;;;;;;;;;;19.10;99.90;;;;;;5010091;28;19928;-79
2021/03/18 03:53:00;;;;;;;;;;;19.10;99.90;;;;;;5009585;28;19924;-79
2021/03/18 03:55:33;;;;;;;;;;;19.20;99.90;;;;;;5003492;28;20000;-79
2021/03/18 03:58:01;;;;;;;;;;;19.10;99.90;;;;;;5076686;28;20272;-80
2021/03/18 04:00:28;;;;;;;;;;;19.10;99.90;;;;;;4996281;28;19936;-80
2021/03/18 04:02:57;;;;;;;;;;;19.00;99.90;;;;;;5009060;28;20014;-79
2021/03/18 04:05:25;;;;;;;;;;;19.10;99.90;;;;;;5009754;28;20012;-79
2021/03/18 04:07:56;;;;;;;;;;;19.10;99.90;;;;;;4992824;28;20280;-79
2021/03/18 04:10:23;;;;;;;;;;;19.20;99.90;;;;;;4983707;28;20312;-79
2021/03/18 04:12:51;;;;;;;;;;;19.20;99.90;;;;;;5009826;28;19920;-81
2021/03/18 04:15:19;;;;;;;;;;;19.20;99.90;;;;;;5009835;28;20008;-86
2021/03/18 04:17:48;;;;;;;;;;;19.20;99.90;;;;;;4977434;28;20021;-83
2021/03/18 04:20:16;;;;;;;;;;;19.20;99.90;;;;;;5004439;28;19970;-89
2021/03/18 04:22:46;;;;;;;;;;;19.10;99.90;;;;;;4999110;28;20283;-82
2021/03/18 04:25:13;;;;;;;;;;;19.00;99.90;;;;;;5009910;28;20371;-89
2021/03/18 04:27:40;;;;;;;;;;;18.90;99.90;;;;;;5010429;28;19913;-82
2021/03/18 04:30:09;;;;;;;;;;;18.90;99.90;;;;;;5009674;28;20405;-87
2021/03/18 04:32:35;;;;;;;;;;;18.80;99.90;;;;;;5011545;28;19939;-88
2021/03/18 04:35:02;;;;;;;;;;;18.70;99.90;;;;;;5009750;28;19913;-83
2021/03/18 04:37:29;;;;;;;;;;;18.70;99.90;;;;;;5008904;28;19982;-83
2021/03/18 04:39:56;;;;;;;;;;;18.60;99.90;;;;;;5009838;28;19996;-88
2021/03/18 04:42:23;;;;;;;;;;;18.60;99.90;;;;;;4994342;28;20333;-82
2021/03/18 04:44:51;;;;;;;;;;;18.60;99.90;;;;;;5007431;28;19917;-82
2021/03/18 04:47:19;;;;;;;;;;;18.70;99.90;;;;;;5009040;28;20012;-86
2021/03/18 04:49:46;;;;;;;;;;;18.60;99.90;;;;;;5009430;28;20054;-87
2021/03/18 04:52:16;;;;;;;;;;;18.60;99.90;;;;;;5005934;28;19941;-81
2021/03/18 04:54:43;;;;;;;;;;;18.60;99.90;;;;;;5009300;28;20114;-84
2021/03/18 04:57:11;;;;;;;;;;;18.70;99.90;;;;;;5009001;28;19917;-85
2021/03/18 04:59:38;;;;;;;;;;;18.40;99.90;;;;;;5001441;28;19913;-90
2021/03/18 05:02:06;;;;;;;;;;;18.10;99.90;;;;;;5013166;28;19942;-81
2021/03/18 05:04:33;;;;;;;;;;;17.90;99.90;;;;;;5012887;28;20314;-86
2021/03/18 05:07:00;;;;;;;;;;;18.00;99.90;;;;;;5014159;28;19920;-86
2021/03/18 05:09:27;;;;;;;;;;;17.90;99.90;;;;;;5010606;28;19914;-82
2021/03/18 05:11:55;;;;;;;;;;;17.90;99.90;;;;;;5008759;28;19917;-84
2021/03/18 05:14:22;;;;;;;;;;;17.80;99.90;;;;;;5005024;28;20387;-84
2021/03/18 05:16:52;;;;;;;;;;;17.70;99.90;;;;;;5008147;28;19914;-84
2021/03/18 05:19:19;;;;;;;;;;;17.80;99.90;;;;;;5008952;28;19914;-80
2021/03/18 05:21:47;;;;;;;;;;;17.70;99.90;;;;;;5011435;28;19922;-85
2021/03/18 05:24:14;;;;;;;;;;;17.70;99.90;;;;;;5010085;28;19918;-80
2021/03/18 05:26:41;;;;;;;;;;;17.70;99.90;;;;;;5009729;28;19983;-87
2021/03/18 05:29:09;;;;;;;;;;;17.80;99.90;;;;;;5009535;28;19913;-85
2021/03/18 05:31:35;;;;;;;;;;;17.80;99.90;;;;;;5002232;28;19917;-84
2021/03/18 05:34:03;;;;;;;;;;;17.80;99.90;;;;;;5009857;28;19914;-82
2021/03/18 05:36:30;;;;;;;;;;;17.80;99.90;;;;;;5009366;28;20324;-80
2021/03/18 05:38:57;;;;;;;;;;;17.70;99.90;;;;;;5010109;28;19986;-82
2021/03/18 05:41:24;;;;;;;;;;;17.80;99.90;;;;;;5008076;28;19983;-84
2021/03/18 05:43:50;;;;;;;;;;;17.80;99.90;;;;;;5011867;28;19918;-84
2021/03/18 05:46:17;;;;;;;;;;;17.80;99.90;;;;;;5016420;28;19913;-81
2021/03/18 05:48:45;;;;;;;;;;;17.70;99.90;;;;;;5012938;28;19920;-82
2021/03/18 05:51:17;;;;;;;;;;;17.70;99.90;;;;;;5014855;28;19909;-88
2021/03/18 05:53:49;;;;;;;;;;;17.70;99.90;;;;;;5012821;28;19925;-85
2021/03/18 05:56:25;;;;;;;;;;;17.60;99.90;;;;;;5011130;28;19913;-80
2021/03/18 05:58:52;;;;;;;;;;;17.70;99.90;;;;;;5012241;28;19914;-86
2021/03/18 06:01:19;;;;;;;;;;;17.70;99.90;;;;;;5014286;28;19924;-79
2021/03/18 06:03:46;;;;;;;;;;;17.60;99.90;;;;;;5015772;28;19921;-83
2021/03/18 06:06:13;;;;;;;;;;;17.60;99.90;;;;;;5012680;28;19949;-80
2021/03/18 06:08:40;;;;;;;;;;;17.60;99.90;;;;;;5015539;28;20423;-80
2021/03/18 06:11:11;;;;;;;;;;;17.60;99.90;;;;;;5024610;28;19913;-83
2021/03/18 06:13:39;;;;;;;;;;;17.60;99.90;;;;;;5073619;28;19918;-83
2021/03/18 06:16:10;;;;;;;;;;;17.50;99.90;;;;;;5012117;28;19921;-81
2021/03/18 06:18:37;;;;;;;;;;;17.60;99.90;;;;;;5001401;28;19914;-80
2021/03/18 06:21:04;;;;;;;;;;;17.60;99.90;;;;;;5012430;28;20011;-81
2021/03/18 06:23:32;;;;;;;;;;;17.50;99.90;;;;;;5010323;28;19964;-82
2021/03/18 06:25:59;;;;;;;;;;;17.60;99.90;;;;;;5000138;28;20439;-84
2021/03/18 06:28:30;;;;;;;;;;;17.60;99.90;;;;;;4995392;28;19914;-81
2021/03/18 06:31:06;;;;;;;;;;;17.50;99.90;;;;;;5011444;28;19954;-85
2021/03/18 06:33:33;;;;;;;;;;;17.50;99.90;;;;;;4999130;28;19921;-83
2021/03/18 06:36:00;;;;;;;;;;;17.50;99.90;;;;;;5001353;28;19914;-81
2021/03/18 06:38:29;;;;;;;;;;;17.60;99.90;;;;;;4995047;28;19949;-81
2021/03/18 06:40:58;;;;;;;;;;;17.70;99.90;;;;;;5011640;28;19913;-78
2021/03/18 06:43:41;;;;;;;;;;;17.70;99.90;;;;;;5001199;28;20244;-80
2021/03/18 06:46:15;;;;;;;;;;;17.60;99.90;;;;;;5003065;28;19914;-79
2021/03/18 06:48:42;;;;;;;;;;;17.50;99.90;;;;;;4998057;28;20359;-80
2021/03/18 06:51:22;;;;;;;;;;;17.40;99.90;;;;;;5035153;28;19917;-83
2021/03/18 06:53:50;;;;;;;;;;;17.50;99.90;;;;;;5012714;28;20001;-80
2021/03/18 06:56:35;;;;;;;;;;;17.40;99.90;;;;;;5013054;28;20012;-80
2021/03/18 06:59:19;;;;;;;;;;;17.50;99.90;;;;;;4995875;28;19917;-79
2021/03/18 07:02:01;;;;;;;;;;;17.50;99.90;;;;;;4993197;28;19988;-81
2021/03/18 07:04:32;;;;;;;;;;;17.60;99.90;;;;;;4990888;28;20050;-79
2021/03/18 07:06:59;;;;;;;;;;;17.60;99.90;;;;;;5009774;28;20240;-79
2021/03/18 07:09:29;;;;;;;;;;;17.50;99.90;;;;;;4992649;28;20008;-81
2021/03/18 07:12:00;;;;;;;;;;;17.30;99.90;;;;;;5014192;28;19913;-83
2021/03/18 07:14:34;;;;;;;;;;;17.40;99.90;;;;;;4993769;28;19951;-82
2021/03/18 07:17:03;;;;;;;;;;;17.30;99.90;;;;;;4994120;28;19920;-82
2021/03/18 07:19:30;;;;;;;;;;;17.30;99.90;;;;;;4992214;28;20066;-79
2021/03/18 07:21:58;;;;;;;;;;;17.30;99.90;;;;;;4978392;28;20391;-78
2021/03/18 07:24:29;;;;;;;;;;;17.30;99.90;;;;;;5010967;28;19914;-80
2021/03/18 07:27:07;;;;;;;;;;;17.30;99.90;;;;;;5009675;28;19917;-80
2021/03/18 07:29:34;;;;;;;;;;;17.30;99.90;;;;;;5011274;28;20011;-81
2021/03/18 07:35:11;;;;;;;;;;;17.40;99.90;;;;;;5009585;28;19924;-87
2021/03/18 07:37:41;;;;;;;;;;;17.40;99.90;;;;;;5009563;28;19923;-83
2021/03/18 07:40:08;;;;;;;;;;;17.40;99.90;;;;;;5011931;28;19915;-84
2021/03/18 07:42:36;;;;;;;;;;;17.40;99.90;;;;;;5013538;28;19929;-83
2021/03/18 07:45:04;;;;;;;;;;;17.40;99.90;;;;;;5007543;28;19913;-82
2021/03/18 07:47:31;;;;;;;;;;;17.40;99.90;;;;;;5007317;28;19920;-84
2021/03/18 07:49:59;;;;;;;;;;;17.50;99.90;;;;;;5007341;28;20364;-83
2021/03/18 07:52:26;;;;;;;;;;;17.50;99.90;;;;;;5006655;28;19975;-84
2021/03/18 07:54:55;;;;;;;;;;;17.40;99.90;;;;;;4998784;28;19921;-85
2021/03/18 07:57:22;;;;;;;;;;;17.30;99.90;;;;;;5007172;28;19961;-88
2021/03/18 07:59:48;;;;;;;;;;;17.30;99.90;;;;;;5008643;28;20399;-86
2021/03/18 08:02:20;;;;;;;;;;;17.40;99.90;;;;;;4999855;28;19978;-86
2021/03/18 08:04:51;;;;;;;;;;;17.40;99.90;;;;;;5010431;28;19917;-86
2021/03/18 08:07:33;;;;;;;;;;;17.40;99.90;;;;;;5010124;28;20339;-87
2021/03/18 08:10:00;;;;;;;;;;;17.40;99.90;;;;;;5002975;28;19975;-88
2021/03/18 08:12:42;;;;;;;;;;;17.30;99.90;;;;;;5005281;28;19914;-87
2021/03/18 08:15:38;;;;;;;;;;;17.30;99.90;;;;;;4991422;28;19959;-82
2021/03/18 08:18:14;;;;;;;;;;;17.20;99.90;;;;;;5016474;28;20418;-84
2021/03/18 08:20:41;;;;;;;;;;;17.40;99.90;;;;;;5076694;28;19924;-87
2021/03/18 08:23:26;;;;;;;;;;;17.40;99.90;;;;;;4991809;28;19926;-88
2021/03/18 08:25:53;;;;;;;;;;;17.40;99.90;;;;;;4996880;28;19919;-87
2021/03/18 08:28:37;;;;;;;;;;;17.40;99.90;;;;;;5010029;28;19920;-87
2021/03/18 08:31:25;;;;;;;;;;;17.40;99.90;;;;;;5008244;28;20259;-88
2021/03/18 08:33:53;;;;;;;;;;;17.40;99.90;;;;;;5007647;28;19917;-88
2021/03/18 08:36:30;;;;;;;;;;;17.30;99.90;;;;;;5010774;28;19914;-86
2021/03/18 08:38:57;;;;;;;;;;;17.20;99.90;;;;;;4995948;28;19920;-87
2021/03/18 08:41:38;;;;;;;;;;;17.20;99.90;;;;;;5010403;28;19933;-87
2021/03/18 08:44:24;;;;;;;;;;;17.10;99.90;;;;;;5009668;28;19986;-88
2021/03/18 08:46:55;;;;;;;;;;;17.10;99.90;;;;;;5010659;27;20297;-89
2021/03/18 08:49:25;;;;;;;;;;;17.20;99.90;;;;;;5004535;28;20055;-84
2021/03/18 08:51:52;;;;;;;;;;;17.30;99.90;;;;;;5009963;28;20029;-84
2021/03/18 08:54:38;;;;;;;;;;;17.30;99.90;;;;;;5007953;28;20404;-85
2021/03/18 08:57:05;;;;;;;;;;;17.40;99.90;;;;;;4993817;28;20264;-84
2021/03/18 08:59:32;;;;;;;;;;;17.30;99.90;;;;;;5009641;28;19914;-83
2021/03/18 09:02:18;;;;;;;;;;;17.40;99.90;;;;;;5009406;28;19917;-82
2021/03/18 09:04:46;;;;;;;;;;;17.40;99.90;;;;;;5000213;28;19914;-84
2021/03/18 09:07:19;;;;;;;;;;;17.50;99.90;;;;;;5010044;28;19914;-82
2021/03/18 09:09:45;;;;;;;;;;;17.50;99.90;;;;;;5009378;28;19914;-84
2021/03/18 09:12:12;;;;;;;;;;;17.50;99.90;;;;;;4992259;28;19947;-83
2021/03/18 09:14:39;;;;;;;;;;;17.50;99.90;;;;;;5010202;28;19959;-82
2021/03/18 09:17:07;;;;;;;;;;;17.50;99.90;;;;;;5009908;28;19917;-81
2021/03/18 09:19:34;;;;;;;;;;;17.50;99.90;;;;;;5009907;28;19914;-82
2021/03/18 09:22:01;;;;;;;;;;;17.60;99.90;;;;;;5009857;28;19928;-82
2021/03/18 09:24:35;;;;;;;;;;;17.90;99.90;;;;;;5009660;28;20394;-82
2021/03/18 09:27:09;;;;;;;;;;;18.20;99.90;;;;;;5009790;28;19944;-83
2021/03/18 09:29:35;;;;;;;;;;;18.50;99.90;;;;;;5009202;28;20016;-82
2021/03/18 09:32:09;;;;;;;;;;;18.80;99.90;;;;;;5009611;28;19952;-82
2021/03/18 09:34:36;;;;;;;;;;;18.80;99.90;;;;;;5009574;28;19924;-85
2021/03/18 09:37:03;;;;;;;;;;;19.00;99.90;;;;;;4992398;28;19986;-84
2021/03/18 09:39:30;;;;;;;;;;;19.00;99.90;;;;;;5009224;28;19909;-82
2021/03/18 09:41:59;;;;;;;;;;;19.00;99.90;;;;;;5010417;28;20047;-83
2021/03/18 09:44:27;;;;;;;;;;;19.00;99.90;;;;;;4993766;28;20271;-84
2021/03/18 09:46:55;;;;;;;;;;;18.90;99.90;;;;;;5002135;28;20368;-81
2021/03/18 09:49:29;;;;;;;;;;;18.90;99.90;;;;;;5011417;28;19921;-82
2021/03/18 09:51:55;;;;;;;;;;;19.00;99.90;;;;;;5010219;28;20348;-82
2021/03/18 09:54:23;;;;;;;;;;;19.10;99.90;;;;;;5009157;28;20011;-83
2021/03/18 09:56:53;;;;;;;;;;;19.10;99.90;;;;;;5010019;28;19931;-81
2021/03/18 09:59:23;;;;;;;;;;;19.10;99.90;;;;;;5010063;28;20008;-82
2021/03/18 10:01:51;;;;;;;;;;;19.20;99.90;;;;;;5010087;28;19964;-82
2021/03/18 10:04:19;;;;;;;;;;;19.20;99.90;;;;;;5009607;28;19909;-85
2021/03/18 10:06:47;;;;;;;;;;;19.30;99.90;;;;;;4993326;28;20346;-82
2021/03/18 10:09:14;;;;;;;;;;;19.30;99.90;;;;;;4992503;28;19953;-82
2021/03/18 10:11:41;;;;;;;;;;;19.40;99.90;;;;;;4992465;28;19913;-86
2021/03/18 10:14:09;;;;;;;;;;;19.40;99.90;;;;;;5009371;28;20024;-82
2021/03/18 10:16:36;;;;;;;;;;;19.30;99.90;;;;;;5009816;28;19935;-83
2021/03/18 10:19:04;;;;;;;;;;;19.30;99.90;;;;;;4992208;28;19910;-81
2021/03/18 10:21:31;;;;;;;;;;;19.30;99.90;;;;;;5009406;28;20016;-82
2021/03/18 10:23:58;;;;;;;;;;;19.40;99.90;;;;;;5010834;28;19917;-82
2021/03/18 10:26:28;;;;;;;;;;;19.40;99.90;;;;;;5009532;28;20012;-84
2021/03/18 10:28:59;;;;;;;;;;;19.40;99.90;;;;;;4997379;28;19944;-82
2021/03/18 10:31:26;;;;;;;;;;;19.50;99.90;;;;;;4996496;28;20001;-82
2021/03/18 10:33:55;;;;;;;;;;;19.70;99.90;;;;;;5003027;28;19948;-83
2021/03/18 10:36:33;;;;;;;;;;;19.70;99.90;;;;;;4975692;28;20360;-83
2021/03/18 10:39:00;;;;;;;;;;;19.70;99.90;;;;;;5059609;28;19990;-82
2021/03/18 10:41:27;;;;;;;;;;;19.70;99.90;;;;;;4993578;28;19941;-84
2021/03/18 10:43:54;;;;;;;;;;;19.60;99.90;;;;;;4992906;28;20070;-82
2021/03/18 10:46:33;;;;;;;;;;;19.50;99.90;;;;;;5002088;28;19996;-82
2021/03/18 10:49:04;;;;;;;;;;;19.30;99.90;;;;;;5005182;28;19913;-83
2021/03/18 10:51:30;;;;;;;;;;;19.30;99.90;;;;;;5011744;28;20336;-82
2021/03/18 10:53:57;;;;;;;;;;;19.20;99.90;;;;;;5000964;28;20001;-82
2021/03/18 10:56:25;;;;;;;;;;;19.30;99.90;;;;;;5011684;28;19917;-80
2021/03/18 10:58:52;;;;;;;;;;;19.30;99.90;;;;;;5012248;28;19947;-82
2021/03/18 11:01:23;;;;;;;;;;;19.30;99.90;;;;;;5012218;28;19974;-83
2021/03/18 11:03:50;;;;;;;;;;;19.40;99.90;;;;;;5011676;28;19913;-84
2021/03/18 11:06:19;;;;;;;;;;;19.40;99.90;;;;;;5012168;28;19917;-82
2021/03/18 11:08:48;;;;;;;;;;;19.50;99.90;;;;;;5011023;28;20340;-88
2021/03/18 11:11:22;;;;;;;;;;;19.60;99.90;;;;;;5012289;28;19967;-81
2021/03/18 11:13:49;;;;;;;;;;;19.70;99.90;;;;;;5012181;28;19909;-80
2021/03/18 11:16:23;;;;;;;;;;;19.80;99.90;;;;;;5012026;28;19909;-81
2021/03/18 11:18:56;;;;;;;;;;;19.80;99.90;;;;;;5011458;28;19936;-80
2021/03/18 11:21:36;;;;;;;;;;;19.90;99.90;;;;;;5011540;28;19922;-81
2021/03/18 11:24:12;;;;;;;;;;;19.80;99.90;;;;;;5009223;28;19914;-82
2021/03/18 11:26:43;;;;;;;;;;;19.90;99.90;;;;;;5008959;28;19914;-80
2021/03/18 11:29:12;;;;;;;;;;;20.00;99.90;;;;;;5010758;28;19913;-80
2021/03/18 11:31:40;;;;;;;;;;;20.00;99.90;;;;;;5008925;28;19913;-82
2021/03/18 11:34:20;;;;;;;;;;;20.10;99.90;;;;;;5010557;28;20363;-80
2021/03/18 11:36:48;;;;;;;;;;;20.20;99.90;;;;;;5010070;28;20299;-82
2021/03/18 11:39:15;;;;;;;;;;;20.30;99.90;;;;;;5011096;28;19910;-80
2021/03/18 11:41:42;;;;;;;;;;;20.30;99.90;;;;;;5011161;28;19929;-81
2021/03/18 11:44:09;;;;;;;;;;;20.30;99.90;;;;;;5010780;28;19910;-80
2021/03/18 11:46:36;;;;;;;;;;;20.30;99.90;;;;;;5010932;28;19914;-81
2021/03/18 11:49:03;;;;;;;;;;;20.30;99.90;;;;;;5011323;28;19920;-84
2021/03/18 11:51:29;;;;;;;;;;;20.40;99.90;;;;;;5011283;28;19913;-84
2021/03/18 11:53:56;;;;;;;;;;;20.50;99.90;;;;;;5010473;28;19914;-80
2021/03/18 11:56:23;;;;;;;;;;;20.50;99.90;;;;;;5010547;28;19917;-80
2021/03/18 11:58:49;;;;;;;;;;;20.40;99.90;;;;;;5010278;28;20391;-83
2021/03/18 12:01:16;;;;;;;;;;;20.40;99.90;;;;;;5011011;28;19929;-80
2021/03/18 12:03:43;;;;;;;;;;;20.40;99.90;;;;;;5011532;28;19914;-77
2021/03/18 12:06:10;;;;;;;;;;;20.40;99.90;;;;;;5011745;28;19914;-79
2021/03/18 12:08:37;;;;;;;;;;;20.40;99.90;;;;;;5013666;28;19917;-79
2021/03/18 12:11:04;;;;;;;;;;;20.40;99.90;;;;;;5011853;28;19913;-79
2021/03/18 12:13:34;;;;;;;;;;;20.30;99.90;;;;;;5011063;28;19910;-79
2021/03/18 12:16:01;;;;;;;;;;;20.30;99.90;;;;;;4993795;28;19923;-78
2021/03/18 12:18:32;;;;;;;;;;;20.30;99.90;;;;;;5010937;28;19913;-80
2021/03/18 12:20:59;;;;;;;;;;;20.20;99.90;;;;;;5011528;28;19917;-80
2021/03/18 12:23:26;;;;;;;;;;;20.30;99.90;;;;;;5025507;28;19926;-80
2021/03/18 12:25:53;;;;;;;;;;;20.20;99.90;;;;;;5020512;28;19914;-81
2021/03/18 12:28:46;;;;;;;;;;;20.20;99.90;;;;;;4992918;28;19917;-79
2021/03/18 12:31:13;;;;;;;;;;;20.20;99.90;;;;;;5009890;28;19918;-81
2021/03/18 12:33:41;;;;;;;;;;;20.20;99.90;;;;;;5024794;28;19980;-79
2021/03/18 12:36:10;;;;;;;;;;;20.30;99.90;;;;;;5011371;28;19962;-79
2021/03/18 12:38:37;;;;;;;;;;;20.40;99.90;;;;;;4993639;28;20408;-82
2021/03/18 12:41:04;;;;;;;;;;;20.40;99.90;;;;;;4994699;28;20287;-79
2021/03/18 12:43:30;;;;;;;;;;;20.50;99.90;;;;;;5010393;28;19962;-82
2021/03/18 12:46:00;;;;;;;;;;;20.60;99.90;;;;;;5012602;28;19910;-81
2021/03/18 12:48:28;;;;;;;;;;;20.70;99.90;;;;;;5010923;28;19913;-81
2021/03/18 12:50:55;;;;;;;;;;;20.70;99.90;;;;;;5010552;28;20462;-83
2021/03/18 12:53:39;;;;;;;;;;;20.70;99.90;;;;;;5010093;28;19914;-80
2021/03/18 12:56:09;;;;;;;;;;;20.70;99.90;;;;;;4977579;28;19917;-80
2021/03/18 12:58:36;;;;;;;;;;;20.60;99.90;;;;;;4990134;28;19995;-81
2021/03/18 13:01:03;;;;;;;;;;;20.50;99.90;;;;;;5010726;28;19916;-81
2021/03/18 13:03:30;;;;;;;;;;;20.40;99.90;;;;;;5019571;28;19917;-80
2021/03/18 13:06:00;;;;;;;;;;;20.40;99.90;;;;;;5010639;28;19909;-81
2021/03/18 13:08:28;;;;;;;;;;;20.40;99.90;;;;;;5010312;28;19949;-80
2021/03/18 13:10:55;;;;;;;;;;;20.40;99.90;;;;;;5009806;28;19917;-81
2021/03/18 13:13:22;;;;;;;;;;;20.40;99.90;;;;;;5100668;28;19907;-82
2021/03/18 13:15:48;;;;;;;;;;;20.50;99.90;;;;;;5095338;28;20048;-80
2021/03/18 13:18:15;;;;;;;;;;;20.70;99.90;;;;;;5113087;28;20376;-82
2021/03/18 13:20:42;;;;;;;;;;;20.70;99.90;;;;;;5096995;28;19910;-81
2021/03/18 13:23:08;;;;;;;;;;;20.70;99.90;;;;;;5011127;28;19921;-82
2021/03/18 13:25:35;;;;;;;;;;;20.70;99.90;;;;;;5010300;28;20004;-83
2021/03/18 13:28:02;;;;;;;;;;;20.70;99.90;;;;;;5009418;28;20368;-80
2021/03/18 13:30:30;;;;;;;;;;;20.70;99.90;;;;;;5009670;28;19959;-83
2021/03/18 13:32:57;;;;;;;;;;;20.70;99.90;;;;;;5010075;28;19909;-83
2021/03/18 13:35:27;;;;;;;;;;;20.70;99.90;;;;;;5010151;28;20359;-82
2021/03/18 13:37:59;;;;;;;;;;;20.60;99.90;;;;;;5010116;28;20370;-81
2021/03/18 13:40:27;;;;;;;;;;;20.70;99.90;;;;;;5009923;28;20340;-81
2021/03/18 13:42:56;;;;;;;;;;;20.60;99.90;;;;;;5010176;28;20327;-80
2021/03/18 13:45:32;;;;;;;;;;;20.70;99.90;;;;;;5010540;28;19909;-80
2021/03/18 13:48:15;;;;;;;;;;;20.70;99.90;;;;;;5027861;28;20006;-81
2021/03/18 13:50:44;;;;;;;;;;;20.70;99.90;;;;;;5113209;28;19908;-83
2021/03/18 13:53:11;;;;;;;;;;;20.60;99.90;;;;;;5094933;28;19915;-81
2021/03/18 13:55:38;;;;;;;;;;;20.70;99.90;;;;;;5112754;28;19934;-80
2021/03/18 13:58:05;;;;;;;;;;;20.70;99.90;;;;;;5093911;28;19934;-82
2021/03/18 14:00:32;;;;;;;;;;;20.70;99.90;;;;;;5009504;28;20382;-82
2021/03/18 14:03:01;;;;;;;;;;;20.70;99.90;;;;;;5009082;28;19922;-81
2021/03/18 14:05:28;;;;;;;;;;;20.80;99.90;;;;;;4996580;28;20329;-83
2021/03/18 14:07:55;;;;;;;;;;;20.80;99.90;;;;;;5013085;28;20418;-83
2021/03/18 14:10:23;;;;;;;;;;;20.80;99.90;;;;;;5012918;28;20346;-80
2021/03/18 14:12:50;;;;;;;;;;;20.70;99.90;;;;;;5012687;28;20244;-79
2021/03/18 14:15:18;;;;;;;;;;;20.70;99.90;;;;;;5011818;28;19966;-82
2021/03/18 14:17:45;;;;;;;;;;;20.70;99.90;;;;;;5013098;28;20016;-82
2021/03/18 14:20:13;;;;;;;;;;;20.70;99.90;;;;;;5013010;28;19909;-80
2021/03/18 14:22:40;;;;;;;;;;;20.70;99.90;;;;;;5012811;28;20007;-81
2021/03/18 14:25:09;;;;;;;;;;;20.70;99.90;;;;;;5013006;28;19956;-81
2021/03/18 14:27:36;;;;;;;;;;;20.70;99.90;;;;;;5012778;28;19954;-83
2021/03/18 14:30:04;;;;;;;;;;;20.70;99.90;;;;;;5012522;28;19917;-80
2021/03/18 14:32:30;;;;;;;;;;;20.80;99.90;;;;;;5012796;28;19916;-83